Alpachiri, Argentina
Current Conditions -  °F | °C
As of 10:00 PM on Wednesday 26 Nov 2014 (Local Time) from SAZN Reporting Station
Clear Clear  
Wind Chill: 64°   Ceiling: Unl
Heat Index: 64°   Visibility: 6mi
Dew Point: 45°   Wind: 0mph
Humidity: 49%   Direction: NA
Pressure: 29.88"   Gusts: NA
Location:  37.37°S, 63.77°W
Report Text: SAZN 270100Z 00000KT CAVOK 18/07 Q1012
Loading
Personal Weather Stations






























Interactive Weather Map New forecast layout! Learn more

10-Day Weather Forecast

Advertisements
Track Severe Weather on mobile